createdAt,value
2023-03-08T00:02:01.223Z,7.57
2023-03-08T00:04:27.709Z,7.83
2023-03-08T00:06:54.348Z,7.50
2023-03-08T00:09:20.759Z,8.00
2023-03-08T00:11:47.188Z,7.77
2023-03-08T00:14:13.582Z,7.27
2023-03-08T00:16:39.988Z,8.03
2023-03-08T00:19:06.424Z,8.17
2023-03-08T00:21:32.848Z,7.93
2023-03-08T00:23:59.239Z,7.97
2023-03-08T00:26:25.725Z,8.27
2023-03-08T00:28:53.015Z,7.93
2023-03-08T00:31:19.644Z,6.50
2023-03-08T00:33:46.191Z,7.60
2023-03-08T00:36:17.468Z,7.73
2023-03-08T00:38:44.655Z,7.77
2023-03-08T00:41:14.272Z,7.90
2023-03-08T00:43:42.361Z,8.27
2023-03-08T00:46:09.671Z,8.37
2023-03-08T00:48:36.204Z,8.13
2023-03-08T00:51:02.683Z,8.20
2023-03-08T00:53:29.878Z,7.97
2023-03-08T00:55:57.848Z,7.63
2023-03-08T00:58:26.514Z,7.47
2023-03-08T01:00:53.380Z,8.30
2023-03-08T01:03:21.825Z,8.70
2023-03-08T01:05:50.617Z,8.60
2023-03-08T01:08:18.382Z,7.93
2023-03-08T01:10:49.866Z,8.40
2023-03-08T01:13:17.150Z,8.10
2023-03-08T01:15:43.890Z,7.77
2023-03-08T01:18:10.748Z,8.03
2023-03-08T01:20:37.267Z,8.37
2023-03-08T01:23:03.864Z,7.93
2023-03-08T01:25:30.720Z,8.30
2023-03-08T01:27:57.180Z,8.13
2023-03-08T01:30:24.142Z,8.33
2023-03-08T01:32:50.709Z,7.90
2023-03-08T01:35:17.861Z,8.00
2023-03-08T01:37:53.607Z,8.33
2023-03-08T01:40:21.369Z,8.33
2023-03-08T01:42:47.973Z,8.63
2023-03-08T01:45:53.089Z,8.10
2023-03-08T01:48:23.599Z,9.17
2023-03-08T01:50:58.756Z,8.63
2023-03-08T01:53:25.688Z,7.90
2023-03-08T01:55:52.782Z,8.53
2023-03-08T01:58:19.373Z,7.90
2023-03-08T02:00:45.839Z,8.33
2023-03-08T02:03:12.459Z,7.90
2023-03-08T02:05:41.929Z,8.33
2023-03-08T02:08:15.044Z,8.43
2023-03-08T02:10:43.556Z,8.80
2023-03-08T02:13:11.299Z,8.17
2023-03-08T02:15:41.157Z,8.10
2023-03-08T02:18:07.743Z,7.67
2023-03-08T02:20:36.731Z,8.00
2023-03-08T02:23:12.642Z,7.60
2023-03-08T02:25:47.339Z,7.97
2023-03-08T02:28:13.846Z,8.43
2023-03-08T02:30:40.436Z,8.30
2023-03-08T02:33:07.594Z,8.43
2023-03-08T02:35:38.583Z,8.03
2023-03-08T02:38:05.052Z,8.27
2023-03-08T02:40:31.512Z,7.50
2023-03-08T02:42:57.967Z,8.07
2023-03-08T02:45:24.477Z,7.73
2023-03-08T02:47:50.939Z,7.57
2023-03-08T02:50:18.426Z,7.50
2023-03-08T02:52:44.906Z,8.07
2023-03-08T02:55:11.364Z,8.20
2023-03-08T02:57:37.848Z,7.20
2023-03-08T03:00:06.386Z,8.03
2023-03-08T03:02:33.879Z,7.47
2023-03-08T03:05:00.388Z,7.47
2023-03-08T03:07:27.668Z,7.57
2023-03-08T03:09:54.732Z,8.17
2023-03-08T03:12:21.563Z,7.93
2023-03-08T03:14:48.093Z,7.90
2023-03-08T03:17:15.182Z,7.77
2023-03-08T03:19:41.731Z,8.53
2023-03-08T03:22:08.241Z,8.17
2023-03-08T03:24:37.409Z,7.80
2023-03-08T03:27:05.321Z,7.40
2023-03-08T03:29:34.494Z,7.70
2023-03-08T03:32:11.042Z,7.50
2023-03-08T03:34:37.645Z,7.73
2023-03-08T03:37:04.547Z,7.30
2023-03-08T03:39:34.687Z,7.90
2023-03-08T03:42:02.157Z,7.67
2023-03-08T03:44:30.887Z,7.77
2023-03-08T03:46:58.208Z,7.13
2023-03-08T03:49:27.210Z,7.57
2023-03-08T03:51:53.675Z,7.53
2023-03-08T03:54:24.543Z,7.47
2023-03-08T03:56:51.333Z,7.87
2023-03-08T03:59:21.583Z,7.53
2023-03-08T04:01:48.595Z,8.07
2023-03-08T04:04:21.618Z,7.63
2023-03-08T04:06:49.011Z,7.53
2023-03-08T04:09:18.882Z,8.00
2023-03-08T04:11:52.365Z,7.23
2023-03-08T04:14:21.797Z,7.70
2023-03-08T04:16:49.754Z,8.43
2023-03-08T04:19:26.637Z,7.50
2023-03-08T04:21:56.373Z,7.27
2023-03-08T04:24:27.300Z,7.23
2023-03-08T04:26:57.826Z,7.80
2023-03-08T04:29:24.341Z,7.00
2023-03-08T04:31:51.013Z,7.27
2023-03-08T04:34:19.642Z,7.53
2023-03-08T04:36:49.101Z,7.80
2023-03-08T04:39:16.398Z,7.00
2023-03-08T04:41:42.837Z,7.07
2023-03-08T04:44:22.395Z,6.67
2023-03-08T04:46:51.763Z,7.20
2023-03-08T04:49:26.051Z,6.97
2023-03-08T04:51:58.083Z,7.17
2023-03-08T04:54:25.031Z,6.77
2023-03-08T04:56:58.817Z,6.50
2023-03-08T04:59:25.654Z,6.30
2023-03-08T05:01:54.920Z,6.53
2023-03-08T05:04:22.798Z,6.60
2023-03-08T05:06:49.226Z,7.00
2023-03-08T05:09:20.926Z,6.60
2023-03-08T05:11:50.728Z,6.63
2023-03-08T05:14:17.191Z,6.90
2023-03-08T05:16:43.934Z,6.40
2023-03-08T05:19:11.491Z,7.10
2023-03-08T05:21:45.502Z,7.53
2023-03-08T05:24:12.797Z,7.50
2023-03-08T05:26:39.514Z,7.43
2023-03-08T05:29:06.754Z,7.20
2023-03-08T05:31:36.556Z,6.60
2023-03-08T05:34:05.366Z,7.10
2023-03-08T05:36:36.519Z,7.23
2023-03-08T05:39:06.755Z,7.47
2023-03-08T05:41:41.413Z,7.90
2023-03-08T05:44:08.367Z,7.83
2023-03-08T05:46:38.223Z,7.33
2023-03-08T05:49:06.529Z,8.20
2023-03-08T05:51:35.056Z,7.33
2023-03-08T05:54:02.142Z,8.00
2023-03-08T05:56:31.140Z,7.77
2023-03-08T05:59:05.598Z,8.30
2023-03-08T06:01:32.522Z,7.33
2023-03-08T06:04:11.028Z,7.23
2023-03-08T06:06:40.225Z,7.50
2023-03-08T06:09:07.911Z,7.50
2023-03-08T06:11:37.565Z,7.93
2023-03-08T06:14:05.171Z,8.07
2023-03-08T06:16:35.106Z,8.43
2023-03-08T06:19:02.342Z,7.83
2023-03-08T06:21:29.819Z,8.53
2023-03-08T06:24:00.140Z,7.77
2023-03-08T06:26:26.546Z,8.63
2023-03-08T06:28:53.258Z,8.00
2023-03-08T06:31:20.744Z,7.57
2023-03-08T06:33:47.445Z,8.10
2023-03-08T06:36:21.363Z,8.20
2023-03-08T06:38:49.829Z,8.40
2023-03-08T06:41:17.905Z,8.17
2023-03-08T06:43:47.594Z,8.20
2023-03-08T06:46:20.183Z,8.40
2023-03-08T06:48:48.158Z,8.57
2023-03-08T06:51:16.624Z,7.83
2023-03-08T06:53:44.942Z,7.60
2023-03-08T06:56:15.515Z,8.93
2023-03-08T06:58:42.877Z,7.87
2023-03-08T07:01:09.870Z,7.90
2023-03-08T07:03:36.788Z,8.57
2023-03-08T07:06:05.946Z,8.47
2023-03-08T07:08:32.728Z,8.73
2023-03-08T07:10:59.947Z,8.83
2023-03-08T07:13:26.789Z,9.30
2023-03-08T07:15:53.334Z,8.93
2023-03-08T07:18:20.359Z,8.27
2023-03-08T07:20:57.530Z,9.93
2023-03-08T07:23:24.727Z,8.57
2023-03-08T07:25:51.394Z,9.23
2023-03-08T07:28:19.175Z,8.13
2023-03-08T07:30:50.425Z,8.63
2023-03-08T07:33:18.731Z,8.93
2023-03-08T07:35:45.200Z,8.93
2023-03-08T07:38:12.441Z,9.03
2023-03-08T07:40:39.161Z,9.70
2023-03-08T07:43:06.253Z,8.53
2023-03-08T07:46:05.330Z,9.10
2023-03-08T07:48:32.569Z,11.27
2023-03-08T07:51:07.132Z,10.67
2023-03-08T07:53:33.987Z,14.83
2023-03-08T07:56:00.597Z,13.30
2023-03-08T07:58:28.131Z,13.23
2023-03-08T08:00:54.557Z,13.47
2023-03-08T08:03:21.372Z,10.07
2023-03-08T08:05:48.132Z,13.77
2023-03-08T08:08:14.790Z,16.80
2023-03-08T08:10:42.297Z,13.77
2023-03-08T08:13:09.491Z,13.10
2023-03-08T08:15:35.931Z,15.63
2023-03-08T08:18:02.439Z,13.00
2023-03-08T08:20:28.929Z,17.47
2023-03-08T08:22:55.377Z,15.20
2023-03-08T08:25:22.071Z,11.97
2023-03-08T08:27:49.949Z,15.13
2023-03-08T08:30:16.565Z,13.27
2023-03-08T08:32:43.073Z,13.67
2023-03-08T08:35:09.785Z,12.57
2023-03-08T08:37:36.175Z,10.73
2023-03-08T08:40:04.760Z,9.30
2023-03-08T08:42:31.206Z,8.40
2023-03-08T08:44:57.607Z,7.57
2023-03-08T08:47:24.085Z,7.67
2023-03-08T08:49:52.344Z,8.40
2023-03-08T08:52:19.144Z,8.20
2023-03-08T08:54:45.717Z,11.37
2023-03-08T08:57:12.166Z,8.53
2023-03-08T08:59:38.614Z,8.90
2023-03-08T09:02:06.184Z,6.43
2023-03-08T09:04:32.768Z,6.87
2023-03-08T09:06:59.237Z,7.40
2023-03-08T09:09:26.788Z,6.87
2023-03-08T09:11:55.577Z,6.33
2023-03-08T09:14:23.391Z,5.77
2023-03-08T09:16:50.168Z,6.10
2023-03-08T09:19:16.773Z,8.50
2023-03-08T09:21:43.327Z,8.87
2023-03-08T09:24:11.668Z,49.40
2023-03-08T09:26:38.273Z,10.77
2023-03-08T09:29:05.523Z,8.30
2023-03-08T09:31:34.088Z,6.20
2023-03-08T09:34:00.685Z,5.23
2023-03-08T09:36:29.971Z,6.37
2023-03-08T09:38:56.445Z,4.40
2023-03-08T09:41:44.549Z,4.77
2023-03-08T09:44:18.060Z,4.80
2023-03-08T09:46:54.018Z,4.97
2023-03-08T09:49:28.047Z,4.57
2023-03-08T09:52:04.436Z,4.53
2023-03-08T09:54:34.947Z,4.43
2023-03-08T09:57:06.749Z,4.63
2023-03-08T09:59:41.002Z,4.50
2023-03-08T10:02:34.922Z,14.77
2023-03-08T10:05:14.368Z,15.33
2023-03-08T10:08:05.017Z,6.03
2023-03-08T10:11:00.404Z,4.23
2023-03-08T10:13:31.126Z,3.93
2023-03-08T10:16:25.058Z,3.47
2023-03-08T10:18:58.633Z,3.83
2023-03-08T10:21:26.664Z,2.90
2023-03-08T10:24:01.956Z,3.37
2023-03-08T10:26:29.135Z,3.13
2023-03-08T10:28:55.630Z,3.90
2023-03-08T10:31:30.875Z,3.27
2023-03-08T10:34:07.092Z,3.27
2023-03-08T10:36:33.574Z,2.93
2023-03-08T10:39:08.797Z,3.50
2023-03-08T10:41:44.777Z,3.10
2023-03-08T10:44:29.650Z,2.93
2023-03-08T10:46:56.171Z,3.40
2023-03-08T10:49:26.923Z,3.10
2023-03-08T10:52:00.351Z,4.33
2023-03-08T10:54:28.486Z,6.03
2023-03-08T10:56:59.001Z,4.00
2023-03-08T10:59:34.606Z,4.00
2023-03-08T11:02:12.921Z,3.63
2023-03-08T11:04:51.001Z,3.07
2023-03-08T11:07:25.905Z,3.43
2023-03-08T11:10:03.570Z,3.90
2023-03-08T11:12:30.029Z,3.70
2023-03-08T11:14:56.483Z,4.03
2023-03-08T11:17:39.175Z,3.93
2023-03-08T11:20:28.344Z,3.73
2023-03-08T11:23:18.266Z,3.80
2023-03-08T11:25:48.481Z,3.90
2023-03-08T11:28:44.606Z,4.53
2023-03-08T11:31:20.860Z,4.30
2023-03-08T11:33:59.501Z,3.77
2023-03-08T11:36:38.542Z,4.07
2023-03-08T11:39:19.915Z,4.37
2023-03-08T11:42:07.130Z,4.27
2023-03-08T11:44:36.567Z,4.33
2023-03-08T11:47:30.901Z,4.40
2023-03-08T11:50:21.902Z,4.00
2023-03-08T11:53:09.292Z,4.13
2023-03-08T11:56:01.962Z,4.70
2023-03-08T11:58:36.430Z,4.10
2023-03-08T12:01:11.926Z,4.53
2023-03-08T12:03:43.726Z,5.37
2023-03-08T12:06:27.936Z,4.23
2023-03-08T12:09:01.590Z,3.80
2023-03-08T12:11:32.647Z,3.73
2023-03-08T12:14:09.493Z,4.10
2023-03-08T12:16:40.713Z,3.70
2023-03-08T12:19:30.301Z,3.87
2023-03-08T12:22:18.282Z,3.83
2023-03-08T12:24:56.497Z,4.40
2023-03-08T12:27:38.813Z,3.60
2023-03-08T12:30:10.976Z,4.10
2023-03-08T12:32:40.135Z,4.07
2023-03-08T12:35:38.135Z,4.10
2023-03-08T12:38:25.842Z,3.83
2023-03-08T12:40:54.493Z,3.70
2023-03-08T12:43:20.895Z,3.80
2023-03-08T12:45:59.623Z,3.43
2023-03-08T12:48:28.565Z,3.70
2023-03-08T12:51:27.270Z,3.40
2023-03-08T12:53:53.706Z,3.50
2023-03-08T12:56:36.561Z,3.27
2023-03-08T12:59:14.942Z,3.43
2023-03-08T13:01:47.148Z,3.10
2023-03-08T13:04:39.737Z,4.37
2023-03-08T13:07:39.451Z,3.13
2023-03-08T13:10:21.134Z,2.80
2023-03-08T13:13:02.872Z,2.97
2023-03-08T13:15:29.426Z,3.57
2023-03-08T13:18:00.386Z,2.80
2023-03-08T13:20:41.359Z,2.83
2023-03-08T13:23:26.026Z,2.73
2023-03-08T13:26:18.035Z,2.50
2023-03-08T13:28:48.052Z,2.87
2023-03-08T13:31:18.684Z,2.20
2023-03-08T13:33:53.920Z,2.20
2023-03-08T13:36:29.015Z,2.10
2023-03-08T13:38:57.572Z,2.10
2023-03-08T13:41:42.722Z,1.77
2023-03-08T13:44:18.343Z,1.70
2023-03-08T13:46:48.430Z,1.73
2023-03-08T13:49:29.900Z,1.73
2023-03-08T13:51:59.608Z,1.77
2023-03-08T13:54:30.390Z,1.10
2023-03-08T13:57:02.815Z,1.33
2023-03-08T13:59:29.958Z,1.33
2023-03-08T14:01:57.462Z,1.40
2023-03-08T14:04:29.487Z,1.40
2023-03-08T14:06:59.117Z,1.50
2023-03-08T14:09:26.978Z,1.57
2023-03-08T14:11:59.616Z,1.90
2023-03-08T14:14:32.604Z,1.77
2023-03-08T14:16:59.713Z,1.97
2023-03-08T14:19:29.937Z,1.90
2023-03-08T14:21:59.911Z,1.70
2023-03-08T14:24:29.688Z,2.00
2023-03-08T14:27:00.553Z,1.87
2023-03-08T14:29:32.565Z,1.90
2023-03-08T14:32:13.132Z,2.40
2023-03-08T14:34:49.388Z,1.90
2023-03-08T14:37:23.914Z,1.80
2023-03-08T14:39:56.884Z,2.30
2023-03-08T14:42:35.553Z,2.50
2023-03-08T14:45:06.748Z,2.10
2023-03-08T14:47:35.443Z,2.17
2023-03-08T14:50:06.862Z,1.90
2023-03-08T14:52:36.889Z,2.57
2023-03-08T14:55:18.745Z,2.63
2023-03-08T14:57:45.225Z,2.53
2023-03-08T15:00:14.567Z,2.37
2023-03-08T15:02:42.153Z,3.60
2023-03-08T15:05:28.432Z,2.63
2023-03-08T15:07:56.515Z,3.37
2023-03-08T15:10:33.723Z,3.80
2023-03-08T15:13:00.691Z,3.70
2023-03-08T15:15:27.152Z,3.30
2023-03-08T15:17:53.660Z,3.13
2023-03-08T15:20:20.784Z,3.50
2023-03-08T15:22:51.495Z,3.43
2023-03-08T15:25:27.802Z,3.20
2023-03-08T15:27:54.284Z,3.07
2023-03-08T15:30:27.645Z,3.13
2023-03-08T15:32:55.071Z,3.00
2023-03-08T15:35:22.826Z,3.10
2023-03-08T15:37:49.965Z,3.50
2023-03-08T15:40:23.476Z,2.93
2023-03-08T15:42:50.049Z,2.50
2023-03-08T15:45:16.471Z,2.40
2023-03-08T15:47:43.259Z,2.50
2023-03-08T15:50:17.965Z,2.23
2023-03-08T15:52:45.181Z,2.80
2023-03-08T15:55:13.625Z,2.20
2023-03-08T15:57:41.020Z,1.73
2023-03-08T16:00:10.462Z,2.43
2023-03-08T16:02:37.906Z,1.60
2023-03-08T16:05:06.563Z,2.20
2023-03-08T16:07:33.252Z,1.30
2023-03-08T16:09:59.844Z,3.53
2023-03-08T16:12:26.644Z,3.20
2023-03-08T16:14:54.937Z,1.30
2023-03-08T16:17:21.517Z,1.67
2023-03-08T16:19:48.046Z,2.60
2023-03-08T16:22:14.582Z,1.30
2023-03-08T16:24:40.994Z,1.70
2023-03-08T16:27:07.476Z,3.40
2023-03-08T16:29:34.222Z,4.13
2023-03-08T16:32:00.996Z,3.40
2023-03-08T16:34:29.317Z,1.53
2023-03-08T16:36:56.724Z,1.33
2023-03-08T16:39:24.528Z,1.10
2023-03-08T16:41:52.330Z,1.80
2023-03-08T16:44:20.988Z,4.03
2023-03-08T16:46:47.973Z,2.67
2023-03-08T16:49:15.999Z,1.50
2023-03-08T16:51:43.062Z,1.77
2023-03-08T16:54:13.317Z,1.13
2023-03-08T16:56:42.521Z,0.83
2023-03-08T16:59:12.410Z,0.73
2023-03-08T17:01:39.738Z,1.00
2023-03-08T17:04:06.263Z,1.40
2023-03-08T17:06:33.036Z,2.20
2023-03-08T17:08:59.635Z,3.93
2023-03-08T17:11:29.914Z,3.67
2023-03-08T17:13:59.684Z,2.30
2023-03-08T17:16:29.748Z,2.47
2023-03-08T17:18:58.295Z,2.07
2023-03-08T17:21:24.861Z,2.10
2023-03-08T17:23:53.434Z,2.50
2023-03-08T17:26:23.038Z,2.70
2023-03-08T17:28:51.028Z,3.60
2023-03-08T17:31:21.101Z,7.07
2023-03-08T17:33:48.532Z,2.60
2023-03-08T17:36:15.746Z,2.87
2023-03-08T17:38:42.590Z,3.70
2023-03-08T17:41:11.785Z,4.27
2023-03-08T17:43:41.043Z,4.10
2023-03-08T17:46:13.747Z,3.97
2023-03-08T17:48:40.448Z,5.50
2023-03-08T17:51:09.683Z,10.93
2023-03-08T17:53:37.804Z,5.70
2023-03-08T17:56:13.410Z,2.50
2023-03-08T17:58:40.268Z,2.70
2023-03-08T18:01:15.230Z,2.57
2023-03-08T18:03:42.285Z,2.80
2023-03-08T18:06:18.339Z,4.53
2023-03-08T18:08:44.931Z,3.30
2023-03-08T18:11:11.316Z,3.20
2023-03-08T18:13:40.317Z,7.30
2023-03-08T18:16:07.222Z,3.50
2023-03-08T18:18:33.692Z,2.80
2023-03-08T18:21:12.081Z,3.23
2023-03-08T18:23:41.706Z,2.37
2023-03-08T18:26:10.120Z,3.93
2023-03-08T18:28:36.554Z,3.30
2023-03-08T18:31:11.801Z,2.20
2023-03-08T18:33:38.337Z,1.73
2023-03-08T18:36:05.077Z,1.33
2023-03-08T18:38:31.633Z,1.50
2023-03-08T18:40:58.102Z,2.23
2023-03-08T18:43:25.354Z,1.80
2023-03-08T18:45:56.488Z,1.67
2023-03-08T18:48:24.249Z,1.90
2023-03-08T18:50:50.787Z,1.67
2023-03-08T18:53:17.256Z,1.70
2023-03-08T18:55:54.289Z,1.43
2023-03-08T18:58:21.230Z,1.47
2023-03-08T19:00:48.086Z,1.50
2023-03-08T19:03:14.515Z,1.87
2023-03-08T19:05:41.121Z,1.47
2023-03-08T19:08:07.557Z,2.07
2023-03-08T19:10:33.997Z,1.63
2023-03-08T19:13:00.505Z,1.70
2023-03-08T19:15:27.237Z,2.73
2023-03-08T19:17:58.617Z,3.60
2023-03-08T19:20:26.563Z,2.80
2023-03-08T19:22:53.414Z,3.20
2023-03-08T19:25:19.807Z,4.30
2023-03-08T19:27:46.302Z,6.23
2023-03-08T19:30:12.955Z,5.27
2023-03-08T19:32:42.157Z,5.07
2023-03-08T19:35:09.806Z,3.30
2023-03-08T19:37:36.286Z,4.13
2023-03-08T19:40:05.311Z,4.03
2023-03-08T19:42:31.843Z,4.10
2023-03-08T19:44:58.437Z,3.50
2023-03-08T19:47:24.854Z,2.50
2023-03-08T19:49:51.649Z,2.90
2023-03-08T19:52:18.186Z,4.10
2023-03-08T19:54:46.184Z,4.17
2023-03-08T19:57:12.944Z,3.23
2023-03-08T19:59:39.505Z,3.23
2023-03-08T20:02:08.633Z,3.10
2023-03-08T20:04:36.448Z,2.90
2023-03-08T20:07:04.722Z,4.13
2023-03-08T20:09:31.435Z,5.30
2023-03-08T20:11:59.146Z,4.70
2023-03-08T20:14:29.212Z,6.30
2023-03-08T20:16:56.339Z,2.93
2023-03-08T20:19:22.873Z,3.40
2023-03-08T20:21:49.531Z,4.30
2023-03-08T20:24:18.421Z,4.33
2023-03-08T20:26:45.374Z,3.70
2023-03-08T20:29:11.962Z,3.30
2023-03-08T20:31:38.415Z,2.40
2023-03-08T20:34:04.890Z,2.50
2023-03-08T20:36:31.477Z,1.83
2023-03-08T20:38:58.426Z,1.83
2023-03-08T20:41:25.708Z,1.80
2023-03-08T20:43:55.350Z,2.00
2023-03-08T20:46:28.065Z,2.10
2023-03-08T20:48:54.581Z,2.70
2023-03-08T20:51:22.007Z,3.30
2023-03-08T20:53:50.680Z,3.40
2023-03-08T20:56:19.831Z,3.07
2023-03-08T20:58:46.721Z,2.70
2023-03-08T21:01:16.413Z,3.03
2023-03-08T21:03:43.750Z,2.77
2023-03-08T21:06:15.018Z,2.73
2023-03-08T21:08:42.047Z,2.83
2023-03-08T21:11:08.955Z,2.60
2023-03-08T21:13:35.396Z,2.63
2023-03-08T21:16:07.518Z,3.20
2023-03-08T21:18:34.017Z,3.10
2023-03-08T21:21:01.454Z,3.57
2023-03-08T21:23:28.022Z,4.63
2023-03-08T21:25:58.010Z,6.20
2023-03-08T21:28:24.559Z,4.30
2023-03-08T21:30:51.419Z,4.43
2023-03-08T21:33:17.836Z,6.27
2023-03-08T21:35:44.806Z,5.37
2023-03-08T21:38:11.253Z,4.77
2023-03-08T21:40:40.390Z,6.57
2023-03-08T21:43:07.374Z,4.90
2023-03-08T21:45:39.040Z,4.40
2023-03-08T21:48:06.058Z,3.60
2023-03-08T21:50:32.944Z,9.13
2023-03-08T21:52:59.531Z,5.20
2023-03-08T21:55:25.984Z,5.07
2023-03-08T21:57:52.463Z,3.80
2023-03-08T22:00:18.910Z,4.40
2023-03-08T22:02:51.583Z,4.50
2023-03-08T22:05:18.829Z,5.80
2023-03-08T22:07:45.295Z,3.80
2023-03-08T22:10:13.585Z,6.33
2023-03-08T22:12:42.050Z,4.20
2023-03-08T22:15:08.926Z,4.63
2023-03-08T22:17:35.464Z,4.40
2023-03-08T22:20:01.873Z,3.37
2023-03-08T22:22:28.307Z,7.03
2023-03-08T22:24:54.712Z,3.30
2023-03-08T22:27:22.993Z,4.63
2023-03-08T22:29:49.945Z,4.70
2023-03-08T22:32:16.429Z,3.30
2023-03-08T22:34:43.044Z,3.30
2023-03-08T22:37:09.467Z,3.87
2023-03-08T22:39:37.709Z,3.80
2023-03-08T22:42:04.469Z,3.20
2023-03-08T22:44:31.232Z,2.77
2023-03-08T22:46:57.688Z,4.47
2023-03-08T22:49:24.106Z,3.47
2023-03-08T22:51:52.257Z,3.47
2023-03-08T22:54:21.563Z,3.67
2023-03-08T22:56:49.857Z,2.70
2023-03-08T22:59:16.720Z,2.77
2023-03-08T23:01:43.246Z,3.53
2023-03-08T23:04:12.136Z,3.30
2023-03-08T23:06:39.026Z,2.57
2023-03-08T23:09:08.071Z,4.07
2023-03-08T23:11:36.068Z,2.30
2023-03-08T23:14:03.355Z,2.30
2023-03-08T23:16:29.884Z,2.20
2023-03-08T23:18:56.412Z,1.30
2023-03-08T23:21:24.869Z,2.13
2023-03-08T23:23:51.338Z,1.40
2023-03-08T23:26:21.173Z,1.30
2023-03-08T23:28:48.052Z,2.33
2023-03-08T23:31:20.751Z,1.00
2023-03-08T23:33:48.986Z,0.80
2023-03-08T23:36:18.553Z,0.90
2023-03-08T23:38:45.071Z,0.77
2023-03-08T23:41:12.692Z,2.00
2023-03-08T23:43:40.358Z,0.70
2023-03-08T23:46:13.756Z,0.87
2023-03-08T23:48:40.493Z,1.00
2023-03-08T23:51:09.811Z,1.60
2023-03-08T23:53:36.693Z,0.93
2023-03-08T23:56:04.026Z,1.27
2023-03-08T23:58:30.772Z,1.27
